Time;durP1;ratioP1;P1;durP2;ratioP2;P2;SDS_P1;SDS_P2;PMS_P1;PMS_P2;Temp;Humidity;BMP_temperature;BMP_pressure;BME280_temperature;BME280_humidity;BME280_pressure;Samples;Min_cycle;Max_cycle;Signal;HPM_P1;HPM_P2
2023/04/17 00:00:16;;;;;;;3.90;3.70;;;11.00;99.90;;;;;;4981036;28;20222;-63
2023/04/17 00:02:43;;;;;;;4.32;4.13;;;11.10;99.90;;;;;;4980399;28;20205;-64
2023/04/17 00:05:10;;;;;;;5.22;4.93;;;11.20;99.90;;;;;;4983116;28;20234;-63
2023/04/17 00:07:38;;;;;;;4.70;4.40;;;11.00;99.90;;;;;;4981893;28;20213;-63
2023/04/17 00:10:07;;;;;;;4.50;4.30;;;10.90;99.90;;;;;;4988670;28;20228;-70
2023/04/17 00:12:34;;;;;;;4.55;4.30;;;10.80;99.90;;;;;;4987033;28;20678;-63
2023/04/17 00:15:01;;;;;;;5.15;4.85;;;10.80;99.90;;;;;;4980748;28;20306;-64
2023/04/17 00:17:29;;;;;;;4.97;4.68;;;10.80;99.90;;;;;;4980877;28;20354;-64
2023/04/17 00:19:56;;;;;;;5.43;5.13;;;10.80;99.90;;;;;;4988502;28;20312;-63
2023/04/17 00:22:23;;;;;;;5.17;4.87;;;10.70;99.90;;;;;;4992566;28;20590;-62
2023/04/17 00:24:50;;;;;;;5.00;4.70;;;10.70;99.90;;;;;;4987476;28;20209;-63
2023/04/17 00:27:16;;;;;;;5.40;5.07;;;10.70;99.90;;;;;;4986643;28;20222;-64
2023/04/17 00:29:43;;;;;;;5.45;5.15;;;10.70;99.90;;;;;;4984031;28;20616;-63
2023/04/17 00:32:10;;;;;;;6.03;5.60;;;10.70;99.90;;;;;;4983605;28;20206;-63
2023/04/17 00:34:39;;;;;;;5.72;5.43;;;10.70;99.90;;;;;;4983360;28;20224;-63
2023/04/17 00:37:06;;;;;;;5.28;4.97;;;10.60;99.90;;;;;;4985755;28;20203;-63
2023/04/17 00:39:32;;;;;;;5.07;4.78;;;10.60;99.90;;;;;;4982634;28;20221;-63
2023/04/17 00:42:00;;;;;;;5.37;5.07;;;10.60;99.90;;;;;;4985796;28;20203;-63
2023/04/17 00:44:27;;;;;;;4.97;4.68;;;10.70;99.90;;;;;;4984727;28;20618;-64
2023/04/17 00:46:54;;;;;;;5.10;4.80;;;10.60;99.90;;;;;;4987339;28;20617;-64
2023/04/17 00:49:21;;;;;;;5.63;5.28;;;10.60;99.90;;;;;;4989997;28;20264;-63
2023/04/17 00:51:50;;;;;;;5.50;5.20;;;10.60;99.90;;;;;;4994016;28;20216;-64
2023/04/17 00:54:18;;;;;;;6.28;5.80;;;10.70;99.90;;;;;;4987450;28;20198;-63
2023/04/17 00:56:45;;;;;;;6.05;5.65;;;10.60;99.90;;;;;;4986644;28;20253;-64
2023/04/17 00:59:14;;;;;;;6.03;5.63;;;10.60;99.90;;;;;;4980901;28;20235;-64
2023/04/17 01:01:41;;;;;;;6.20;5.80;;;10.60;99.90;;;;;;4986122;28;20313;-63
2023/04/17 01:04:08;;;;;;;6.63;6.22;;;10.50;99.90;;;;;;4985001;28;20666;-63
2023/04/17 01:06:35;;;;;;;6.00;5.60;;;10.50;99.90;;;;;;4976073;28;20210;-62
2023/04/17 01:09:04;;;;;;;6.00;5.60;;;10.50;99.90;;;;;;4974135;28;20285;-64
2023/04/17 01:11:31;;;;;;;5.90;5.57;;;10.50;99.90;;;;;;4974960;28;20210;-64
2023/04/17 01:13:57;;;;;;;5.97;5.57;;;10.60;99.90;;;;;;4974391;28;20306;-64
2023/04/17 01:16:24;;;;;;;6.40;6.10;;;10.50;99.90;;;;;;4974251;28;20241;-65
2023/04/17 01:18:51;;;;;;;6.33;5.93;;;10.50;99.90;;;;;;4975336;28;20231;-63
2023/04/17 01:21:18;;;;;;;5.70;5.40;;;10.50;99.90;;;;;;4974361;28;20209;-64
2023/04/17 01:23:48;;;;;;;6.28;5.90;;;10.60;99.90;;;;;;4979905;28;20274;-66
2023/04/17 01:26:19;;;;;;;6.20;5.90;;;10.60;99.90;;;;;;4981515;28;20195;-65
2023/04/17 01:28:51;;;;;;;5.25;4.95;;;10.70;99.90;;;;;;4973736;28;20278;-62
2023/04/17 01:31:18;;;;;;;5.90;5.50;;;10.70;99.90;;;;;;4973793;28;20205;-63
2023/04/17 01:33:45;;;;;;;6.00;5.60;;;10.70;99.90;;;;;;4975381;28;20207;-62
2023/04/17 01:36:12;;;;;;;5.23;4.93;;;10.80;99.90;;;;;;4976261;28;20226;-64
2023/04/17 01:38:39;;;;;;;5.68;5.38;;;10.70;99.90;;;;;;4975687;28;20726;-64
2023/04/17 01:41:09;;;;;;;5.28;4.97;;;10.70;99.90;;;;;;4973056;28;20261;-63
2023/04/17 01:43:39;;;;;;;5.30;5.00;;;10.80;99.90;;;;;;4989377;28;20245;-63
2023/04/17 01:46:06;;;;;;;5.85;5.45;;;11.00;99.90;;;;;;4995065;28;20220;-63
2023/04/17 01:48:33;;;;;;;5.17;4.87;;;10.90;99.90;;;;;;4994256;28;20234;-62
2023/04/17 01:51:00;;;;;;;6.53;6.13;;;10.90;99.90;;;;;;4993134;28;20211;-64
2023/04/17 01:53:27;;;;;;;5.20;4.90;;;10.90;99.90;;;;;;4993006;28;20208;-64
2023/04/17 01:55:54;;;;;;;6.25;5.88;;;10.90;99.90;;;;;;4993295;28;20595;-63
2023/04/17 01:58:20;;;;;;;6.30;6.00;;;10.90;99.90;;;;;;4989360;28;20209;-62
2023/04/17 02:00:50;;;;;;;6.80;6.40;;;10.80;99.90;;;;;;4992823;28;20677;-63
2023/04/17 02:03:16;;;;;;;6.95;6.55;;;10.80;99.90;;;;;;4990711;28;20250;-65
2023/04/17 02:05:46;;;;;;;6.60;6.20;;;10.70;99.90;;;;;;4983808;28;20204;-63
2023/04/17 02:08:13;;;;;;;6.60;6.20;;;10.60;99.90;;;;;;4992865;28;20206;-63
2023/04/17 02:10:40;;;;;;;7.82;7.32;;;10.60;99.90;;;;;;4991009;28;20220;-62
2023/04/17 02:13:07;;;;;;;7.33;6.83;;;10.40;99.90;;;;;;4994088;28;20206;-64
2023/04/17 02:15:34;;;;;;;7.05;6.65;;;10.40;99.90;;;;;;4995391;28;20321;-64
2023/04/17 02:18:02;;;;;;;7.35;6.80;;;10.40;99.90;;;;;;4998960;28;20673;-63
2023/04/17 02:20:29;;;;;;;7.65;7.15;;;10.40;99.90;;;;;;4998264;28;20222;-63
2023/04/17 02:22:56;;;;;;;7.50;7.10;;;10.40;99.90;;;;;;4997997;28;20299;-64
2023/04/17 02:25:23;;;;;;;6.85;6.45;;;10.40;99.90;;;;;;4995125;28;20202;-63
2023/04/17 02:27:50;;;;;;;7.25;6.80;;;10.40;99.90;;;;;;4994444;28;20206;-64
2023/04/17 02:30:17;;;;;;;6.95;6.45;;;10.40;99.90;;;;;;4994167;28;20243;-63
2023/04/17 02:32:44;;;;;;;6.22;5.82;;;10.50;99.90;;;;;;4994151;28;20588;-61
2023/04/17 02:35:12;;;;;;;7.10;6.70;;;10.50;99.90;;;;;;4993739;28;20222;-62
2023/04/17 02:37:39;;;;;;;6.90;6.50;;;10.60;99.90;;;;;;4993915;28;20216;-63
2023/04/17 02:40:08;;;;;;;7.03;6.63;;;10.50;99.90;;;;;;4996387;28;20272;-62
2023/04/17 02:42:35;;;;;;;6.57;6.20;;;10.40;99.90;;;;;;4997752;28;20216;-62
2023/04/17 02:45:02;;;;;;;6.80;6.40;;;10.40;99.90;;;;;;4996538;28;21033;-62
2023/04/17 02:47:29;;;;;;;6.77;6.37;;;10.30;99.90;;;;;;4997544;28;20206;-63
2023/04/17 02:49:58;;;;;;;7.20;6.80;;;10.30;99.90;;;;;;4996575;28;20232;-63
2023/04/17 02:52:27;;;;;;;6.87;6.47;;;10.30;99.90;;;;;;4997224;28;20618;-65
2023/04/17 02:54:55;;;;;;;6.87;6.47;;;10.30;99.90;;;;;;4993968;28;20423;-64
2023/04/17 02:57:22;;;;;;;6.57;6.17;;;10.30;99.90;;;;;;4993705;28;20209;-62
2023/04/17 02:59:50;;;;;;;6.47;6.10;;;10.20;99.90;;;;;;4993732;28;20230;-63
2023/04/17 03:02:20;;;;;;;6.53;6.13;;;10.20;99.90;;;;;;4993552;28;20221;-63
2023/04/17 03:04:49;;;;;;;6.50;6.10;;;10.20;99.90;;;;;;4994685;28;20225;-64
2023/04/17 03:07:17;;;;;;;6.82;6.43;;;10.20;99.90;;;;;;4995216;28;20213;-63
2023/04/17 03:09:46;;;;;;;5.77;5.43;;;10.30;99.90;;;;;;4993302;28;20222;-63
2023/04/17 03:12:14;;;;;;;5.73;5.43;;;10.30;99.90;;;;;;4992316;28;20210;-63
2023/04/17 03:14:41;;;;;;;5.43;5.13;;;10.20;99.90;;;;;;4992270;28;20731;-64
2023/04/17 03:17:08;;;;;;;5.55;5.25;;;10.20;99.90;;;;;;4992903;28;20230;-65
2023/04/17 03:19:35;;;;;;;5.55;5.25;;;10.30;99.90;;;;;;5000966;28;20866;-63
2023/04/17 03:22:02;;;;;;;4.13;3.93;;;10.30;99.90;;;;;;5001188;28;20649;-64
2023/04/17 03:24:30;;;;;;;4.20;4.00;;;10.40;99.90;;;;;;4997295;28;20230;-62
2023/04/17 03:26:58;;;;;;;4.32;4.13;;;10.60;99.90;;;;;;4993707;28;20217;-64
2023/04/17 03:29:25;;;;;;;5.13;4.83;;;10.60;99.90;;;;;;4992747;28;20267;-63
2023/04/17 03:31:52;;;;;;;5.00;4.70;;;10.70;99.90;;;;;;4993128;28;20297;-63
2023/04/17 03:34:21;;;;;;;5.70;5.40;;;10.70;99.90;;;;;;4992446;28;20929;-64
2023/04/17 03:36:48;;;;;;;5.00;4.75;;;10.70;99.90;;;;;;4991746;28;20233;-63
2023/04/17 03:39:15;;;;;;;5.47;5.17;;;10.70;99.90;;;;;;4991818;28;20317;-63
2023/04/17 03:41:41;;;;;;;6.55;6.15;;;10.60;99.90;;;;;;4991867;28;20895;-62
2023/04/17 03:44:10;;;;;;;6.13;5.80;;;10.50;99.90;;;;;;4992552;28;20204;-64
2023/04/17 03:46:37;;;;;;;5.75;5.45;;;10.50;99.90;;;;;;4994764;28;20322;-63
2023/04/17 03:49:05;;;;;;;5.23;4.93;;;10.50;99.90;;;;;;4995675;28;20674;-62
2023/04/17 03:51:31;;;;;;;5.00;4.70;;;10.60;99.90;;;;;;4997123;28;20213;-63
2023/04/17 03:53:58;;;;;;;5.57;5.25;;;10.60;99.90;;;;;;4995044;28;20212;-64
2023/04/17 03:56:26;;;;;;;5.38;5.07;;;10.70;99.90;;;;;;4992709;28;20234;-64
2023/04/17 03:58:52;;;;;;;5.70;5.40;;;10.60;99.90;;;;;;4991685;28;20228;-62
2023/04/17 04:01:21;;;;;;;5.95;5.65;;;10.60;99.90;;;;;;4994417;28;20683;-63
2023/04/17 04:03:48;;;;;;;6.43;6.03;;;10.50;99.90;;;;;;4994676;28;20256;-63
2023/04/17 04:06:19;;;;;;;5.43;5.13;;;10.40;99.90;;;;;;4995648;28;20824;-64
2023/04/17 04:08:46;;;;;;;5.18;4.88;;;10.40;99.90;;;;;;4994914;28;20229;-63
2023/04/17 04:11:13;;;;;;;6.03;5.72;;;10.40;99.90;;;;;;4995409;28;20557;-61
2023/04/17 04:13:40;;;;;;;6.27;5.93;;;10.30;99.90;;;;;;4996762;28;20244;-62
2023/04/17 04:16:08;;;;;;;5.72;5.43;;;10.20;99.90;;;;;;4995113;28;20234;-64
2023/04/17 04:18:36;;;;;;;4.82;4.63;;;10.20;99.90;;;;;;4996971;28;20308;-63
2023/04/17 04:21:04;;;;;;;5.32;5.03;;;10.30;99.90;;;;;;4998915;28;20260;-66
2023/04/17 04:23:32;;;;;;;5.55;5.25;;;10.30;99.90;;;;;;5012635;28;20273;-64
2023/04/17 04:26:00;;;;;;;6.03;5.63;;;10.30;99.90;;;;;;5010578;28;20198;-64
2023/04/17 04:28:29;;;;;;;5.65;5.35;;;10.30;99.90;;;;;;5001668;28;20210;-64
2023/04/17 04:30:57;;;;;;;4.10;3.90;;;10.30;99.90;;;;;;4998746;28;20298;-64
2023/04/17 04:33:24;;;;;;;5.32;5.03;;;10.40;99.90;;;;;;5001623;28;20202;-66
2023/04/17 04:35:54;;;;;;;5.40;5.10;;;10.40;99.90;;;;;;4997147;28;20222;-66
2023/04/17 04:38:29;;;;;;;5.30;5.00;;;10.50;99.90;;;;;;5000156;28;20186;-63
2023/04/17 04:41:00;;;;;;;5.20;4.90;;;10.40;99.90;;;;;;4997440;28;20688;-63
2023/04/17 04:43:28;;;;;;;5.47;5.18;;;10.40;99.90;;;;;;4996328;28;20205;-63
2023/04/17 04:45:55;;;;;;;4.72;4.53;;;10.40;99.90;;;;;;4995115;28;20210;-62
2023/04/17 04:48:22;;;;;;;4.93;4.63;;;10.50;99.90;;;;;;4991886;28;20206;-63
2023/04/17 04:50:49;;;;;;;4.70;4.50;;;10.60;99.90;;;;;;4994861;28;20212;-63
2023/04/17 04:53:17;;;;;;;4.30;4.10;;;10.70;99.90;;;;;;4998398;28;20558;-64
2023/04/17 04:55:44;;;;;;;5.35;5.05;;;10.70;99.90;;;;;;5004371;28;20282;-64
2023/04/17 04:58:11;;;;;;;5.28;4.93;;;10.70;99.90;;;;;;5005890;28;20220;-64
2023/04/17 05:00:38;;;;;;;5.47;5.18;;;10.60;99.90;;;;;;5003614;28;20281;-67
2023/04/17 05:03:05;;;;;;;4.90;4.70;;;10.60;99.90;;;;;;5004066;28;20210;-65
2023/04/17 05:05:32;;;;;;;5.57;5.28;;;10.60;99.90;;;;;;5001134;28;20201;-66
2023/04/17 05:07:59;;;;;;;4.38;4.18;;;10.50;99.90;;;;;;4997177;28;20205;-65
2023/04/17 05:10:27;;;;;;;4.43;4.15;;;10.60;99.90;;;;;;4993758;28;20280;-64
2023/04/17 05:12:54;;;;;;;3.85;3.65;;;10.70;99.90;;;;;;4993113;28;20206;-65
2023/04/17 05:15:22;;;;;;;5.47;5.18;;;10.90;99.90;;;;;;4995957;28;20206;-65
2023/04/17 05:17:48;;;;;;;5.35;5.05;;;10.80;99.90;;;;;;4996345;28;20233;-66
2023/04/17 05:20:15;;;;;;;5.30;5.00;;;10.80;99.90;;;;;;5003806;28;20226;-66
2023/04/17 05:22:42;;;;;;;4.22;4.03;;;10.70;99.90;;;;;;5005323;28;20289;-66
2023/04/17 05:25:09;;;;;;;3.92;3.72;;;10.70;99.90;;;;;;5004435;28;20206;-65
2023/04/17 05:27:37;;;;;;;4.05;3.85;;;10.80;99.90;;;;;;5002004;28;20708;-64
2023/04/17 05:30:05;;;;;;;4.25;4.05;;;10.90;99.90;;;;;;5001984;28;20297;-65
2023/04/17 05:32:33;;;;;;;4.05;3.85;;;11.00;99.90;;;;;;5001058;28;20237;-64
2023/04/17 05:35:00;;;;;;;4.03;3.83;;;11.00;99.90;;;;;;5003399;28;20209;-64
2023/04/17 05:37:27;;;;;;;4.28;4.07;;;11.10;99.90;;;;;;4999070;28;20241;-66
2023/04/17 05:39:54;;;;;;;4.03;3.83;;;11.10;99.90;;;;;;4995198;28;20222;-64
2023/04/17 05:42:21;;;;;;;3.92;3.72;;;11.10;99.90;;;;;;4994814;28;20205;-64
2023/04/17 05:44:49;;;;;;;4.15;3.95;;;11.20;99.90;;;;;;4996087;28;20301;-66
2023/04/17 05:47:16;;;;;;;5.03;4.75;;;11.40;99.90;;;;;;4995700;28;20208;-65
2023/04/17 05:49:43;;;;;;;4.93;4.73;;;11.10;99.90;;;;;;4981279;28;20242;-66
2023/04/17 05:52:10;;;;;;;5.60;5.30;;;11.00;99.90;;;;;;4976226;28;20218;-64
2023/04/17 05:54:37;;;;;;;4.93;4.63;;;10.90;99.90;;;;;;4976821;28;20756;-66
2023/04/17 05:57:04;;;;;;;4.97;4.67;;;10.90;99.90;;;;;;4993142;28;20218;-66
2023/04/17 05:59:30;;;;;;;4.80;4.50;;;10.80;99.90;;;;;;4998918;28;20226;-66
2023/04/17 06:01:59;;;;;;;4.40;4.20;;;10.80;99.90;;;;;;4990457;28;20206;-64
2023/04/17 06:04:26;;;;;;;4.00;3.80;;;10.80;99.90;;;;;;4981001;28;20207;-65
2023/04/17 06:06:52;;;;;;;4.33;4.03;;;10.90;99.90;;;;;;4985338;28;20207;-66
2023/04/17 06:09:20;;;;;;;4.40;4.20;;;10.80;99.90;;;;;;4985335;28;20222;-65
2023/04/17 06:11:47;;;;;;;4.50;4.20;;;10.80;99.90;;;;;;4985806;28;20194;-65
2023/04/17 06:14:14;;;;;;;4.85;4.60;;;10.80;99.90;;;;;;4980619;28;20198;-66
2023/04/17 06:16:40;;;;;;;4.43;4.23;;;10.90;99.90;;;;;;4992614;28;20720;-66
2023/04/17 06:19:09;;;;;;;4.10;3.90;;;10.90;99.90;;;;;;5004191;28;20230;-65
2023/04/17 06:21:35;;;;;;;4.05;3.85;;;11.00;99.90;;;;;;5012424;28;20233;-65
2023/04/17 06:24:02;;;;;;;4.40;4.20;;;10.90;99.90;;;;;;5014675;28;20230;-66
2023/04/17 06:26:29;;;;;;;4.00;3.80;;;10.90;99.90;;;;;;5012252;28;20207;-65
2023/04/17 06:28:56;;;;;;;4.13;3.93;;;10.80;99.90;;;;;;5011026;28;20237;-65
2023/04/17 06:31:23;;;;;;;3.77;3.57;;;10.80;99.90;;;;;;5002607;28;20294;-65
2023/04/17 06:33:50;;;;;;;3.70;3.50;;;10.90;99.90;;;;;;4993447;28;20229;-65
2023/04/17 06:36:18;;;;;;;3.20;3.10;;;10.90;99.90;;;;;;4992418;28;20365;-65
2023/04/17 06:38:45;;;;;;;3.67;3.47;;;11.00;99.90;;;;;;4993311;28;20226;-65
2023/04/17 06:41:13;;;;;;;3.33;3.22;;;11.00;99.90;;;;;;4992932;28;20210;-65
2023/04/17 06:43:40;;;;;;;3.40;3.20;;;11.10;99.90;;;;;;4993698;28;20736;-65
2023/04/17 06:46:06;;;;;;;3.30;3.20;;;11.10;99.90;;;;;;4993409;28;20228;-64
2023/04/17 06:48:33;;;;;;;3.07;2.97;;;11.10;99.90;;;;;;4993547;28;20313;-65
2023/04/17 06:51:00;;;;;;;3.53;3.33;;;11.20;99.90;;;;;;5000816;28;20269;-68
2023/04/17 06:53:28;;;;;;;3.50;3.37;;;11.20;99.90;;;;;;5003843;28;20210;-65
2023/04/17 06:55:55;;;;;;;3.90;3.70;;;11.10;99.90;;;;;;5004283;28;20270;-65
2023/04/17 06:58:22;;;;;;;3.22;3.13;;;11.10;99.90;;;;;;4995656;28;20316;-66
2023/04/17 07:00:49;;;;;;;3.60;3.40;;;11.20;99.90;;;;;;4993274;28;20206;-66
2023/04/17 07:03:15;;;;;;;3.20;3.10;;;11.20;99.90;;;;;;4993412;28;20296;-65
2023/04/17 07:05:44;;;;;;;3.10;2.90;;;11.20;99.90;;;;;;4993156;28;20209;-64
2023/04/17 07:08:10;;;;;;;3.80;3.60;;;11.30;99.90;;;;;;4993281;28;20232;-65
2023/04/17 07:10:39;;;;;;;3.33;3.13;;;11.20;99.90;;;;;;4994676;28;20210;-65
2023/04/17 07:13:05;;;;;;;3.70;3.50;;;11.20;99.90;;;;;;4992940;28;20218;-65
2023/04/17 07:15:32;;;;;;;3.30;3.10;;;11.30;99.90;;;;;;4992559;28;20780;-65
2023/04/17 07:17:59;;;;;;;3.60;3.40;;;11.20;99.90;;;;;;4992671;28;20344;-65
2023/04/17 07:20:26;;;;;;;3.22;3.03;;;11.20;99.90;;;;;;4991909;28;20230;-64
2023/04/17 07:22:54;;;;;;;2.80;2.70;;;11.30;99.90;;;;;;4992130;28;20689;-64
2023/04/17 07:25:21;;;;;;;3.10;2.90;;;11.40;99.90;;;;;;4992700;28;20245;-64
2023/04/17 07:27:49;;;;;;;3.10;3.00;;;11.40;99.90;;;;;;4992029;28;20252;-64
2023/04/17 07:30:16;;;;;;;3.43;3.23;;;11.40;99.90;;;;;;4991260;28;20796;-65
2023/04/17 07:32:43;;;;;;;3.05;2.85;;;11.40;99.90;;;;;;4992182;28;20231;-64
2023/04/17 07:35:10;;;;;;;3.20;3.00;;;11.40;99.90;;;;;;4992206;28;20205;-64
2023/04/17 07:37:36;;;;;;;2.53;2.43;;;11.30;99.90;;;;;;4992372;28;20316;-64
2023/04/17 07:40:09;;;;;;;3.20;3.00;;;11.50;99.90;;;;;;4991635;28;20724;-65
2023/04/17 07:42:35;;;;;;;3.20;3.00;;;11.50;99.90;;;;;;4991873;28;20236;-64
2023/04/17 07:45:04;;;;;;;2.80;2.70;;;11.60;99.90;;;;;;4992640;28;20213;-66
2023/04/17 07:47:31;;;;;;;3.20;2.90;;;11.70;99.90;;;;;;4998389;28;20212;-66
2023/04/17 07:49:58;;;;;;;2.80;2.70;;;11.70;99.90;;;;;;4995553;28;20321;-66
2023/04/17 07:52:25;;;;;;;2.63;2.53;;;11.70;99.90;;;;;;4994187;28;20212;-64
2023/04/17 07:54:51;;;;;;;2.60;2.50;;;11.50;99.90;;;;;;4992246;28;20611;-64
2023/04/17 07:57:21;;;;;;;2.63;2.53;;;11.70;99.90;;;;;;4992218;28;20240;-66
2023/04/17 07:59:47;;;;;;;2.70;2.60;;;11.70;99.90;;;;;;4992238;28;20734;-65
2023/04/17 08:02:16;;;;;;;2.60;2.50;;;11.80;99.90;;;;;;4993014;28;20210;-65
2023/04/17 08:04:43;;;;;;;2.72;2.53;;;11.90;99.90;;;;;;4992439;28;20664;-64
2023/04/17 08:07:11;;;;;;;2.47;2.37;;;11.90;99.90;;;;;;4993209;28;20568;-66
2023/04/17 08:09:38;;;;;;;2.42;2.33;;;11.90;99.90;;;;;;4994318;28;20226;-66
2023/04/17 08:12:06;;;;;;;2.83;2.63;;;12.00;99.90;;;;;;4995178;28;20212;-66
2023/04/17 08:14:33;;;;;;;2.22;2.13;;;12.00;99.90;;;;;;4994714;28;20202;-64
2023/04/17 08:17:00;;;;;;;2.20;2.10;;;11.90;99.90;;;;;;4992233;28;20232;-65
2023/04/17 08:19:29;;;;;;;2.53;2.42;;;12.00;99.90;;;;;;4991101;28;20295;-64
2023/04/17 08:22:02;;;;;;;2.17;2.07;;;12.00;99.90;;;;;;4991878;28;20209;-64
2023/04/17 08:24:30;;;;;;;2.17;2.07;;;12.00;99.90;;;;;;4991745;28;20210;-65
2023/04/17 08:26:57;;;;;;;2.10;2.00;;;12.10;99.90;;;;;;4991085;28;20585;-65
2023/04/17 08:29:24;;;;;;;2.10;2.00;;;12.20;99.90;;;;;;4989929;28;21090;-64
2023/04/17 08:31:51;;;;;;;2.00;1.90;;;12.20;99.90;;;;;;4991086;28;20232;-65
2023/04/17 08:34:17;;;;;;;2.30;2.10;;;12.10;99.90;;;;;;4992191;28;20728;-63
2023/04/17 08:36:46;;;;;;;2.15;2.05;;;12.00;99.90;;;;;;4991067;28;20510;-64
2023/04/17 08:39:15;;;;;;;2.03;1.92;;;12.00;99.90;;;;;;4990282;28;20229;-65
2023/04/17 08:41:48;;;;;;;1.90;1.80;;;12.00;99.90;;;;;;4991120;28;20238;-65
2023/04/17 08:44:19;;;;;;;2.10;2.00;;;12.10;99.90;;;;;;4993544;28;20312;-66
2023/04/17 08:46:46;;;;;;;2.00;1.90;;;12.30;99.90;;;;;;4996491;28;20214;-64
2023/04/17 08:49:13;;;;;;;2.13;2.03;;;12.50;99.90;;;;;;4994258;28;20226;-66
2023/04/17 08:51:40;;;;;;;2.00;1.90;;;12.50;99.90;;;;;;4994221;28;20214;-65
2023/04/17 08:54:09;;;;;;;2.10;2.00;;;12.40;99.90;;;;;;4993357;28;20209;-64
2023/04/17 08:56:36;;;;;;;2.00;1.90;;;12.40;99.90;;;;;;4993746;28;20214;-65
2023/04/17 08:59:03;;;;;;;1.95;1.85;;;12.50;99.90;;;;;;4993822;28;20767;-66
2023/04/17 09:01:30;;;;;;;2.33;2.13;;;12.40;99.90;;;;;;4994464;28;20210;-65
2023/04/17 09:03:57;;;;;;;1.95;1.85;;;12.60;99.90;;;;;;4994673;28;20216;-65
2023/04/17 09:06:23;;;;;;;2.00;1.90;;;12.70;99.90;;;;;;4995362;28;20267;-66
2023/04/17 09:08:58;;;;;;;2.10;2.00;;;12.70;99.90;;;;;;4995340;28;20628;-65
2023/04/17 09:11:27;;;;;;;2.00;1.90;;;12.80;99.90;;;;;;4994718;28;20201;-65
2023/04/17 09:13:54;;;;;;;1.80;1.70;;;12.80;99.90;;;;;;4995812;28;20205;-65
2023/04/17 09:16:23;;;;;;;1.60;1.60;;;12.70;99.90;;;;;;4995495;28;20210;-65
2023/04/17 09:18:50;;;;;;;2.10;2.00;;;12.80;99.90;;;;;;4995182;28;20252;-65
2023/04/17 09:21:18;;;;;;;2.10;2.00;;;12.80;99.90;;;;;;4993834;28;20234;-66
2023/04/17 09:23:51;;;;;;;2.37;2.27;;;12.70;99.90;;;;;;4994629;28;20205;-65
2023/04/17 09:26:19;;;;;;;2.10;2.00;;;12.70;99.90;;;;;;4995529;28;20299;-66
2023/04/17 09:29:06;;;;;;;2.00;1.90;;;12.90;99.90;;;;;;4994026;28;20593;-65
2023/04/17 09:31:34;;;;;;;2.05;1.95;;;12.90;99.90;;;;;;4994650;28;20245;-65
2023/04/17 09:34:02;;;;;;;1.90;1.80;;;12.90;99.90;;;;;;4993542;28;20206;-65
2023/04/17 09:36:31;;;;;;;2.00;1.90;;;13.00;99.90;;;;;;4994164;28;20202;-65
2023/04/17 09:38:59;;;;;;;2.10;2.00;;;13.10;99.90;;;;;;4994158;28;20362;-64
2023/04/17 09:41:27;;;;;;;2.40;2.30;;;13.00;99.90;;;;;;4992689;28;20736;-66
2023/04/17 09:43:55;;;;;;;2.25;2.15;;;13.00;99.90;;;;;;4993584;28;20209;-65
2023/04/17 09:46:34;;;;;;;2.60;2.50;;;13.00;99.90;;;;;;4993141;28;20221;-65
2023/04/17 09:49:03;;;;;;;2.37;2.27;;;13.10;99.90;;;;;;4993227;28;20225;-65
2023/04/17 09:51:30;;;;;;;2.00;1.80;;;13.30;99.90;;;;;;4993012;28;20297;-66
2023/04/17 09:53:59;;;;;;;2.10;2.00;;;13.30;99.90;;;;;;4993608;28;20858;-65
2023/04/17 09:56:26;;;;;;;2.30;2.20;;;13.30;99.90;;;;;;4993081;28;20210;-65
2023/04/17 09:58:53;;;;;;;2.10;2.00;;;13.30;99.90;;;;;;4993815;28;20701;-64
2023/04/17 10:01:21;;;;;;;1.90;1.80;;;13.20;99.90;;;;;;4992535;28;20206;-65
2023/04/17 10:03:50;;;;;;;1.77;1.70;;;13.10;99.90;;;;;;4993555;28;20214;-65
2023/04/17 10:06:17;;;;;;;1.60;1.60;;;13.10;99.90;;;;;;4995106;28;20277;-66
2023/04/17 10:08:44;;;;;;;2.05;1.95;;;13.30;99.90;;;;;;4995467;28;20222;-64
2023/04/17 10:11:11;;;;;;;1.90;1.80;;;13.30;99.90;;;;;;4994221;28;20206;-66
2023/04/17 10:13:39;;;;;;;1.67;1.67;;;13.30;99.90;;;;;;4993332;28;20244;-65
2023/04/17 10:16:06;;;;;;;1.53;1.53;;;13.50;99.90;;;;;;4993706;28;20304;-65
2023/04/17 10:18:33;;;;;;;2.00;1.90;;;13.60;99.90;;;;;;4993283;28;20237;-65
2023/04/17 10:21:20;;;;;;;1.70;1.60;;;13.60;99.90;;;;;;4991867;28;20214;-64
2023/04/17 10:23:47;;;;;;;1.40;1.40;;;13.60;99.90;;;;;;4993086;28;20677;-64
2023/04/17 10:26:44;;;;;;;1.53;1.53;;;13.70;99.90;;;;;;4995017;28;20210;-63
2023/04/17 10:29:12;;;;;;;1.57;1.47;;;13.70;99.90;;;;;;4992775;28;20310;-64
2023/04/17 10:32:23;;;;;;;1.40;1.40;;;13.80;99.90;;;;;;4993755;28;20217;-65
2023/04/17 10:34:50;;;;;;;1.43;1.43;;;13.90;99.90;;;;;;4993734;28;20210;-66
2023/04/17 10:37:21;;;;;;;1.40;1.40;;;13.90;99.90;;;;;;4993379;28;20218;-64
2023/04/17 10:39:58;;;;;;;1.60;1.50;;;13.80;99.90;;;;;;4992918;28;20241;-66
2023/04/17 10:42:26;;;;;;;1.20;1.20;;;13.90;99.90;;;;;;4994134;28;20201;-65
2023/04/17 10:44:58;;;;;;;1.60;1.50;;;13.90;99.90;;;;;;4994782;28;20213;-66
2023/04/17 10:47:32;;;;;;;1.30;1.30;;;14.10;99.90;;;;;;4993630;28;20217;-65
2023/04/17 10:50:01;;;;;;;1.48;1.48;;;14.30;99.90;;;;;;4992237;28;20225;-65
2023/04/17 10:52:41;;;;;;;1.50;1.50;;;14.50;99.90;;;;;;4993861;28;20214;-65
2023/04/17 10:55:11;;;;;;;1.40;1.40;;;14.50;99.90;;;;;;4993943;28;20206;-65
2023/04/17 10:57:55;;;;;;;1.20;1.20;;;14.60;99.90;;;;;;4993305;28;20701;-65
2023/04/17 11:00:32;;;;;;;1.20;1.20;;;14.70;99.90;;;;;;4992825;28;20788;-64
2023/04/17 11:03:00;;;;;;;1.10;1.10;;;14.60;99.90;;;;;;4993718;28;20289;-64
2023/04/17 11:05:28;;;;;;;1.00;1.00;;;14.70;99.90;;;;;;4994577;28;20218;-65
2023/04/17 11:07:56;;;;;;;1.10;1.10;;;14.70;99.90;;;;;;4994720;28;20202;-65
2023/04/17 11:10:23;;;;;;;1.10;1.10;;;14.60;99.90;;;;;;4995932;28;20214;-66
2023/04/17 11:12:52;;;;;;;1.13;1.13;;;14.50;99.90;;;;;;4999207;28;20212;-66
2023/04/17 11:15:26;;;;;;;1.00;1.00;;;14.20;99.90;;;;;;4999598;28;20216;-65
2023/04/17 11:17:54;;;;;;;1.10;1.10;;;14.20;99.90;;;;;;4997248;28;20228;-65
2023/04/17 11:20:22;;;;;;;0.90;0.90;;;14.20;99.90;;;;;;4992010;28;20230;-64
2023/04/17 11:22:49;;;;;;;1.00;1.00;;;14.20;99.90;;;;;;4992894;28;20206;-68
2023/04/17 11:25:22;;;;;;;0.90;0.90;;;14.30;99.90;;;;;;4993387;28;20712;-64
2023/04/17 11:27:51;;;;;;;1.17;1.17;;;14.30;99.90;;;;;;4993851;28;20213;-65
2023/04/17 11:30:26;;;;;;;1.03;1.03;;;14.20;99.90;;;;;;4994048;28;20230;-66
2023/04/17 11:32:53;;;;;;;1.45;1.40;;;14.40;99.90;;;;;;5006495;28;20205;-65
2023/04/17 11:35:27;;;;;;;1.30;1.20;;;14.50;99.90;;;;;;5008011;28;20202;-66
2023/04/17 11:38:12;;;;;;;1.17;1.07;;;14.50;99.90;;;;;;5005934;28;20206;-66
2023/04/17 11:40:44;;;;;;;1.00;1.00;;;14.40;99.90;;;;;;5005168;28;20202;-65
2023/04/17 11:43:12;;;;;;;1.00;1.00;;;14.40;99.90;;;;;;4994303;28;20584;-64
2023/04/17 11:45:40;;;;;;;1.00;1.00;;;14.50;99.90;;;;;;4997932;28;20214;-65
2023/04/17 11:48:10;;;;;;;0.80;0.80;;;14.60;99.90;;;;;;4996079;28;20210;-64
2023/04/17 11:50:37;;;;;;;0.57;0.57;;;14.80;99.90;;;;;;4992533;28;20237;-66
2023/04/17 11:53:04;;;;;;;0.60;0.60;;;15.10;99.90;;;;;;4995597;28;20680;-65
2023/04/17 11:55:32;;;;;;;0.70;0.70;;;15.10;99.90;;;;;;4998505;28;20352;-64
2023/04/17 11:58:02;;;;;;;0.60;0.60;;;15.50;99.90;;;;;;4998281;28;20230;-69
2023/04/17 12:00:30;;;;;;;0.60;0.60;;;15.60;99.90;;;;;;5006077;28;20230;-65
2023/04/17 12:02:58;;;;;;;0.40;0.40;;;15.60;99.90;;;;;;5005273;28;20266;-65
2023/04/17 12:05:26;;;;;;;0.60;0.60;;;15.80;99.90;;;;;;5009456;28;20213;-66
2023/04/17 12:08:03;;;;;;;0.73;0.73;;;15.60;99.90;;;;;;5006533;28;20214;-65
2023/04/17 12:10:41;;;;;;;0.47;0.47;;;15.70;99.90;;;;;;4994759;28;20226;-65
2023/04/17 12:13:10;;;;;;;0.70;0.70;;;15.70;99.90;;;;;;5009233;28;20423;-66
2023/04/17 12:15:37;;;;;;;0.60;0.60;;;15.50;99.90;;;;;;5005416;28;20288;-65
2023/04/17 12:18:05;;;;;;;0.73;0.73;;;15.50;99.90;;;;;;4994934;28;20232;-64
2023/04/17 12:20:33;;;;;;;0.52;0.52;;;15.60;99.90;;;;;;4989944;28;20240;-65
2023/04/17 12:23:00;;;;;;;0.47;0.47;;;15.70;99.90;;;;;;4995265;28;20221;-64
2023/04/17 12:25:27;;;;;;;0.47;0.47;;;15.70;99.90;;;;;;4994889;28;20281;-64
2023/04/17 12:27:55;;;;;;;0.60;0.60;;;15.70;99.90;;;;;;4994277;28;20215;-64
2023/04/17 12:30:24;;;;;;;1.13;0.60;;;15.70;99.90;;;;;;4991913;28;20285;-65
2023/04/17 12:32:51;;;;;;;0.50;0.50;;;15.60;99.90;;;;;;4995174;28;20218;-65
2023/04/17 12:35:18;;;;;;;1.03;0.80;;;15.70;99.90;;;;;;4997629;28;20225;-65
2023/04/17 12:37:47;;;;;;;0.60;0.60;;;16.00;99.90;;;;;;4997304;28;20233;-64
2023/04/17 12:40:15;;;;;;;0.60;0.60;;;16.20;99.90;;;;;;4996651;28;20639;-65
2023/04/17 12:42:42;;;;;;;0.60;0.60;;;16.10;99.90;;;;;;4996059;28;20212;-65
2023/04/17 12:45:09;;;;;;;0.60;0.60;;;16.10;99.90;;;;;;4995039;28;20221;-64
2023/04/17 12:47:37;;;;;;;0.40;0.40;;;16.20;99.90;;;;;;4995013;28;20218;-65
2023/04/17 12:50:05;;;;;;;1.00;1.00;;;16.00;99.90;;;;;;4994339;28;20224;-64
2023/04/17 12:52:32;;;;;;;0.70;0.70;;;16.10;99.90;;;;;;4996450;28;20252;-64